sensor_id;sensor_type;location;lat;lon;timestamp;pressure;altitude;pressure_sealevel;temperature;humidity
13954;BME280;7049;49.444;8.522;2023-04-05T00:04:31;79366.84;;;-3.47;53.37
13954;BME280;7049;49.444;8.522;2023-04-05T00:09:35;79373.13;;;-3.47;53.39
13954;BME280;7049;49.444;8.522;2023-04-05T00:14:36;79379.41;;;-3.47;53.07
13954;BME280;7049;49.444;8.522;2023-04-05T00:19:38;79377.31;;;-3.47;52.96
13954;BME280;7049;49.444;8.522;2023-04-05T00:24:40;79383.59;;;-3.47;52.97
13954;BME280;7049;49.444;8.522;2023-04-05T00:29:42;79385.69;;;-3.47;53.10
13954;BME280;7049;49.444;8.522;2023-04-05T00:34:43;79396.16;;;-3.47;53.92
13954;BME280;7049;49.444;8.522;2023-04-05T00:39:46;79402.44;;;-3.47;54.01
13954;BME280;7049;49.444;8.522;2023-04-05T00:44:48;79408.72;;;-3.47;53.93
13954;BME280;7049;49.444;8.522;2023-04-05T00:49:49;79419.19;;;-3.47;54.41
13954;BME280;7049;49.444;8.522;2023-04-05T00:54:52;79421.28;;;-3.47;53.85
13954;BME280;7049;49.444;8.522;2023-04-05T00:59:57;79427.56;;;-3.47;53.92
13954;BME280;7049;49.444;8.522;2023-04-05T01:05:08;79442.22;;;-3.47;54.65
13954;BME280;7049;49.444;8.522;2023-04-05T01:10:15;79442.22;;;-3.47;55.56
13954;BME280;7049;49.444;8.522;2023-04-05T01:15:17;79450.59;;;-3.47;56.02
13954;BME280;7049;49.444;8.522;2023-04-05T01:20:20;79458.97;;;-3.47;56.10
13954;BME280;7049;49.444;8.522;2023-04-05T01:25:48;79463.16;;;-3.47;57.16
13954;BME280;7049;49.444;8.522;2023-04-05T01:31:04;79463.16;;;-3.47;58.08
13954;BME280;7049;49.444;8.522;2023-04-05T01:36:12;79465.25;;;-3.47;59.41
13954;BME280;7049;49.444;8.522;2023-04-05T01:41:16;79475.72;;;-3.47;59.87
13954;BME280;7049;49.444;8.522;2023-04-05T01:46:19;79488.28;;;-3.47;60.31
13954;BME280;7049;49.444;8.522;2023-04-05T01:51:20;79486.19;;;-3.47;60.33
13954;BME280;7049;49.444;8.522;2023-04-05T01:56:22;79484.09;;;-3.47;60.57
13954;BME280;7049;49.444;8.522;2023-04-05T02:01:24;79475.72;;;-3.47;61.01
13954;BME280;7049;49.444;8.522;2023-04-05T02:06:26;79492.47;;;-3.47;61.25
13954;BME280;7049;49.444;8.522;2023-04-05T02:11:28;79492.47;;;-3.47;61.94
13954;BME280;7049;49.444;8.522;2023-04-05T02:16:31;79500.84;;;-3.47;62.63
13954;BME280;7049;49.444;8.522;2023-04-05T02:21:33;79505.03;;;-3.47;62.89
13954;BME280;7049;49.444;8.522;2023-04-05T02:26:35;79517.56;;;-3.47;63.12
13954;BME280;7049;49.444;8.522;2023-04-05T02:31:38;79523.84;;;-3.47;62.65
13954;BME280;7049;49.444;8.522;2023-04-05T02:36:40;79532.22;;;-3.47;63.09
13954;BME280;7049;49.444;8.522;2023-04-05T02:41:43;79530.13;;;-3.47;63.19
13954;BME280;7049;49.444;8.522;2023-04-05T02:46:46;79542.69;;;-3.47;63.51
13954;BME280;7049;49.444;8.522;2023-04-05T02:51:47;79551.06;;;-3.47;63.83
13954;BME280;7049;49.444;8.522;2023-04-05T02:56:49;79546.88;;;-3.47;63.88
13954;BME280;7049;49.444;8.522;2023-04-05T03:01:55;79551.06;;;-3.47;63.89
13954;BME280;7049;49.444;8.522;2023-04-05T03:06:56;79559.44;;;-3.47;64.81
13954;BME280;7049;49.444;8.522;2023-04-05T03:11:59;79555.25;;;-3.47;66.11
13954;BME280;7049;49.444;8.522;2023-04-05T03:17:02;79567.81;;;-3.47;65.62
13954;BME280;7049;49.444;8.522;2023-04-05T03:22:03;79569.91;;;-3.47;65.46
13954;BME280;7049;49.444;8.522;2023-04-05T03:27:05;79576.19;;;-3.47;65.66
13954;BME280;7049;49.444;8.522;2023-04-05T03:32:08;79580.38;;;-3.47;65.59
13954;BME280;7049;49.444;8.522;2023-04-05T03:37:11;79590.84;;;-3.47;65.54
13954;BME280;7049;49.444;8.522;2023-04-05T03:42:12;79601.31;;;-3.47;65.71
13954;BME280;7049;49.444;8.522;2023-04-05T03:47:16;79595.03;;;-3.47;66.36
13954;BME280;7049;49.444;8.522;2023-04-05T03:52:17;79601.31;;;-3.47;66.27
13954;BME280;7049;49.444;8.522;2023-04-05T03:57:19;79592.94;;;-3.47;66.19
13954;BME280;7049;49.444;8.522;2023-04-05T04:02:22;79601.31;;;-3.47;65.94
13954;BME280;7049;49.444;8.522;2023-04-05T04:07:23;79605.50;;;-3.47;65.25
13954;BME280;7049;49.444;8.522;2023-04-05T04:12:25;79609.69;;;-3.47;65.80
13954;BME280;7049;49.444;8.522;2023-04-05T04:17:30;79609.69;;;-3.47;65.47
13954;BME280;7049;49.444;8.522;2023-04-05T04:22:31;79615.97;;;-3.47;65.63
13954;BME280;7049;49.444;8.522;2023-04-05T04:27:33;79603.41;;;-3.47;65.62
13954;BME280;7049;49.444;8.522;2023-04-05T04:32:38;79613.88;;;-3.47;65.70
13954;BME280;7049;49.444;8.522;2023-04-05T04:37:56;79618.06;;;-3.47;66.24
13954;BME280;7049;49.444;8.522;2023-04-05T04:42:58;79628.53;;;-3.47;66.26
13954;BME280;7049;49.444;8.522;2023-04-05T04:48:00;79632.72;;;-3.47;66.75
13954;BME280;7049;49.444;8.522;2023-04-05T04:53:03;79634.81;;;-3.47;66.42
13954;BME280;7049;49.444;8.522;2023-04-05T04:58:05;79645.28;;;-3.47;66.95
13954;BME280;7049;49.444;8.522;2023-04-05T05:03:13;79653.66;;;-3.47;67.03
13954;BME280;7049;49.444;8.522;2023-04-05T05:08:16;79649.47;;;-3.47;66.90
13954;BME280;7049;49.444;8.522;2023-04-05T05:13:19;79651.56;;;-3.47;66.64
13954;BME280;7049;49.444;8.522;2023-04-05T05:18:21;79664.13;;;-3.47;67.28
13954;BME280;7049;49.444;8.522;2023-04-05T05:23:23;79668.31;;;-3.47;67.53
13954;BME280;7049;49.444;8.522;2023-04-05T05:28:25;79670.41;;;-3.47;68.06
13954;BME280;7049;49.444;8.522;2023-04-05T05:33:28;79668.31;;;-3.47;67.66
13954;BME280;7049;49.444;8.522;2023-04-05T05:38:29;79662.03;;;-3.47;67.24
13954;BME280;7049;49.444;8.522;2023-04-05T05:43:30;79664.13;;;-3.47;67.97
13954;BME280;7049;49.444;8.522;2023-04-05T05:48:33;79655.75;;;-3.47;68.02
13954;BME280;7049;49.444;8.522;2023-04-05T05:53:35;79645.28;;;-3.47;68.68
13954;BME280;7049;49.444;8.522;2023-04-05T05:58:38;79649.47;;;-3.47;67.97
13954;BME280;7049;49.444;8.522;2023-04-05T06:03:41;79641.09;;;-3.47;67.06
13954;BME280;7049;49.444;8.522;2023-04-05T06:08:42;79630.63;;;-3.47;66.12
13954;BME280;7049;49.444;8.522;2023-04-05T06:13:43;79624.34;;;-3.47;66.09
13954;BME280;7049;49.444;8.522;2023-04-05T06:18:49;79605.50;;;-3.47;65.41
13954;BME280;7049;49.444;8.522;2023-04-05T06:23:50;79592.94;;;-3.47;64.94
13954;BME280;7049;49.444;8.522;2023-04-05T06:28:52;79582.47;;;-3.47;64.05
13954;BME280;7049;49.444;8.522;2023-04-05T06:33:56;79563.63;;;-3.47;64.40
13954;BME280;7049;49.444;8.522;2023-04-05T06:38:57;79536.41;;;-3.47;63.93
13954;BME280;7049;49.444;8.522;2023-04-05T06:43:59;79513.41;;;-3.47;63.48
13954;BME280;7049;49.444;8.522;2023-04-05T06:49:02;79488.28;;;-3.47;62.81
13954;BME280;7049;49.444;8.522;2023-04-05T06:54:03;79458.97;;;-3.47;62.96
13954;BME280;7049;49.444;8.522;2023-04-05T06:59:05;79433.84;;;-3.47;61.81
13954;BME280;7049;49.444;8.522;2023-04-05T07:04:07;79412.91;;;-3.47;61.41
13954;BME280;7049;49.444;8.522;2023-04-05T07:09:09;79362.66;;;-3.47;61.71
13954;BME280;7049;49.444;8.522;2023-04-05T07:14:10;79324.97;;;-3.47;60.07
13954;BME280;7049;49.444;8.522;2023-04-05T07:19:13;79283.13;;;-3.47;58.70
13954;BME280;7049;49.444;8.522;2023-04-05T07:24:14;79232.88;;;-3.47;58.33
13954;BME280;7049;49.444;8.522;2023-04-05T07:29:16;79182.63;;;-3.47;56.75
13954;BME280;7049;49.444;8.522;2023-04-05T07:34:19;79130.31;;;-3.47;54.62
13954;BME280;7049;49.444;8.522;2023-04-05T07:39:20;79086.34;;;-3.47;52.32
13954;BME280;7049;49.444;8.522;2023-04-05T07:44:22;79036.09;;;-3.47;50.62
13954;BME280;7049;49.444;8.522;2023-04-05T07:49:25;78990.06;;;-3.47;47.40
13954;BME280;7049;49.444;8.522;2023-04-05T07:54:27;78939.81;;;-3.47;46.70
13954;BME280;7049;49.444;8.522;2023-04-05T07:59:31;78893.78;;;-3.47;44.57
13954;BME280;7049;49.444;8.522;2023-04-05T08:04:34;78858.19;;;-3.47;42.82
13954;BME280;7049;49.444;8.522;2023-04-05T08:09:35;78820.50;;;-3.47;42.27
13954;BME280;7049;49.444;8.522;2023-04-05T08:14:37;78780.75;;;-3.47;41.04
13954;BME280;7049;49.444;8.522;2023-04-05T08:19:42;78730.50;;;-3.47;40.11
13954;BME280;7049;49.444;8.522;2023-04-05T08:24:43;78701.22;;;-3.47;38.93
13954;BME280;7049;49.444;8.522;2023-04-05T08:29:45;78644.69;;;-3.47;39.12
13954;BME280;7049;49.444;8.522;2023-04-05T08:34:48;78594.47;;;-3.47;38.66
13954;BME280;7049;49.444;8.522;2023-04-05T08:39:49;78560.97;;;-3.47;36.54
13954;BME280;7049;49.444;8.522;2023-04-05T08:44:51;78527.50;;;-3.47;36.92
13954;BME280;7049;49.444;8.522;2023-04-05T08:49:54;78481.44;;;-3.47;36.49
13954;BME280;7049;49.444;8.522;2023-04-05T08:54:56;78437.50;;;-3.47;36.15
13954;BME280;7049;49.444;8.522;2023-04-05T08:59:58;78391.47;;;-3.47;35.69
13954;BME280;7049;49.444;8.522;2023-04-05T09:05:03;78353.78;;;-3.47;34.96
13954;BME280;7049;49.444;8.522;2023-04-05T09:10:12;78311.94;;;-3.47;34.88
13954;BME280;7049;49.444;8.522;2023-04-05T09:15:13;78276.34;;;-3.47;34.16
13954;BME280;7049;49.444;8.522;2023-04-05T09:20:18;78265.88;;;-3.47;33.76
13954;BME280;7049;49.444;8.522;2023-04-05T09:25:33;78247.06;;;-3.47;33.16
13954;BME280;7049;49.444;8.522;2023-04-05T09:30:35;78224.03;;;-3.47;32.87
13954;BME280;7049;49.444;8.522;2023-04-05T09:35:38;78182.19;;;-3.47;32.33
13954;BME280;7049;49.444;8.522;2023-04-05T09:40:40;78157.06;;;-3.47;31.86
13954;BME280;7049;49.444;8.522;2023-04-05T09:45:43;78129.88;;;-3.47;30.99
13954;BME280;7049;49.444;8.522;2023-04-05T09:50:47;78106.84;;;-3.47;31.21
13954;BME280;7049;49.444;8.522;2023-04-05T09:55:49;78106.84;;;-3.47;29.30
13954;BME280;7049;49.444;8.522;2023-04-05T10:00:51;78121.50;;;-3.47;29.45
13954;BME280;7049;49.444;8.522;2023-04-05T10:05:55;78096.38;;;-3.47;30.16
13954;BME280;7049;49.444;8.522;2023-04-05T10:10:57;78033.59;;;-3.47;30.64
13954;BME280;7049;49.444;8.522;2023-04-05T10:16:00;78014.78;;;-3.47;29.80
13954;BME280;7049;49.444;8.522;2023-04-05T10:21:05;77977.09;;;-3.47;29.82
13954;BME280;7049;49.444;8.522;2023-04-05T10:26:15;77979.19;;;-3.47;28.54
13954;BME280;7049;49.444;8.522;2023-04-05T10:31:24;77947.81;;;-3.47;28.45
13954;BME280;7049;49.444;8.522;2023-04-05T10:36:34;77943.63;;;-3.47;27.30
13954;BME280;7049;49.444;8.522;2023-04-05T10:41:41;77947.81;;;-3.47;27.30
13954;BME280;7049;49.444;8.522;2023-04-05T10:46:46;77952.00;;;-3.47;26.95
13954;BME280;7049;49.444;8.522;2023-04-05T10:51:49;77939.44;;;-3.47;26.64
13954;BME280;7049;49.444;8.522;2023-04-05T10:56:51;77910.13;;;-3.47;27.66
13954;BME280;7049;49.444;8.522;2023-04-05T11:01:53;77903.88;;;-3.47;27.16
13954;BME280;7049;49.444;8.522;2023-04-05T11:07:13;77889.22;;;-3.47;27.94
13954;BME280;7049;49.444;8.522;2023-04-05T11:12:15;77862.00;;;-3.47;27.18
13954;BME280;7049;49.444;8.522;2023-04-05T11:17:23;77845.28;;;-3.47;26.48
13954;BME280;7049;49.444;8.522;2023-04-05T11:22:28;77878.75;;;-3.47;26.94
13954;BME280;7049;49.444;8.522;2023-04-05T11:27:31;77859.91;;;-3.47;27.17
13954;BME280;7049;49.444;8.522;2023-04-05T11:32:40;77855.75;;;-3.47;27.38
13954;BME280;7049;49.444;8.522;2023-04-05T11:38:05;77862.00;;;-3.47;26.51
13954;BME280;7049;49.444;8.522;2023-04-05T11:43:10;77849.47;;;-3.47;27.32
13954;BME280;7049;49.444;8.522;2023-04-05T11:48:12;77832.72;;;-3.47;27.10
13954;BME280;7049;49.444;8.522;2023-04-05T11:53:17;77828.53;;;-3.47;27.15
13954;BME280;7049;49.444;8.522;2023-04-05T11:58:20;77822.25;;;-3.47;25.94
13954;BME280;7049;49.444;8.522;2023-04-05T12:03:21;77801.34;;;-3.47;26.96
13954;BME280;7049;49.444;8.522;2023-04-05T12:08:37;77822.25;;;-3.47;26.92
13954;BME280;7049;49.444;8.522;2023-04-05T12:13:38;77772.03;;;-3.47;28.05
13954;BME280;7049;49.444;8.522;2023-04-05T12:18:40;77730.19;;;-3.47;28.74
13954;BME280;7049;49.444;8.522;2023-04-05T12:23:45;77707.16;;;-3.47;27.54
13954;BME280;7049;49.444;8.522;2023-04-05T12:28:50;77692.53;;;-3.47;27.78
13954;BME280;7049;49.444;8.522;2023-04-05T12:33:58;77705.09;;;-3.47;27.28
13954;BME280;7049;49.444;8.522;2023-04-05T12:39:05;77696.72;;;-3.47;27.47
13954;BME280;7049;49.444;8.522;2023-04-05T12:44:11;77684.16;;;-3.47;28.38
13954;BME280;7049;49.444;8.522;2023-04-05T12:49:16;77671.59;;;-3.47;28.25
13954;BME280;7049;49.444;8.522;2023-04-05T12:54:22;77659.03;;;-3.47;27.65
13954;BME280;7049;49.444;8.522;2023-04-05T12:59:23;77661.13;;;-3.47;28.32
13954;BME280;7049;49.444;8.522;2023-04-05T13:04:25;77638.13;;;-3.47;27.91
13954;BME280;7049;49.444;8.522;2023-04-05T13:09:28;77629.75;;;-3.47;26.73
13954;BME280;7049;49.444;8.522;2023-04-05T13:14:31;77615.09;;;-3.47;27.19
13954;BME280;7049;49.444;8.522;2023-04-05T13:19:32;77627.66;;;-3.47;26.48
13954;BME280;7049;49.444;8.522;2023-04-05T13:24:35;77608.84;;;-3.47;27.05
13954;BME280;7049;49.444;8.522;2023-04-05T13:29:37;77610.91;;;-3.47;27.33
13954;BME280;7049;49.444;8.522;2023-04-05T13:34:38;77592.09;;;-3.47;27.08
13954;BME280;7049;49.444;8.522;2023-04-05T13:39:44;77585.81;;;-3.47;27.12
13954;BME280;7049;49.444;8.522;2023-04-05T13:44:45;77569.06;;;-3.47;25.60
13954;BME280;7049;49.444;8.522;2023-04-05T13:49:47;77566.97;;;-3.47;26.44
13954;BME280;7049;49.444;8.522;2023-04-05T13:54:49;77569.06;;;-3.47;25.87
13954;BME280;7049;49.444;8.522;2023-04-05T13:59:51;77558.63;;;-3.47;26.02
13954;BME280;7049;49.444;8.522;2023-04-05T14:04:52;77562.81;;;-3.47;25.70
13954;BME280;7049;49.444;8.522;2023-04-05T14:09:59;77546.06;;;-3.47;25.76
13954;BME280;7049;49.444;8.522;2023-04-05T14:15:01;77543.97;;;-3.47;25.23
13954;BME280;7049;49.444;8.522;2023-04-05T14:20:03;77581.63;;;-3.47;24.04
13954;BME280;7049;49.444;8.522;2023-04-05T14:25:07;77602.56;;;-3.47;24.06
13954;BME280;7049;49.444;8.522;2023-04-05T14:30:10;77581.63;;;-3.47;24.72
13954;BME280;7049;49.444;8.522;2023-04-05T14:35:11;77621.38;;;-3.47;23.82
13954;BME280;7049;49.444;8.522;2023-04-05T14:40:14;77638.13;;;-3.47;23.88
13954;BME280;7049;49.444;8.522;2023-04-05T14:45:16;77650.69;;;-3.47;23.50
13954;BME280;7049;49.444;8.522;2023-04-05T14:50:18;77610.91;;;-3.47;25.25
13954;BME280;7049;49.444;8.522;2023-04-05T14:55:21;77566.97;;;-3.47;24.99
13954;BME280;7049;49.444;8.522;2023-04-05T15:00:22;77541.88;;;-3.47;24.82
13954;BME280;7049;49.444;8.522;2023-04-05T15:05:24;77520.94;;;-3.47;24.21
13954;BME280;7049;49.444;8.522;2023-04-05T15:10:27;77529.31;;;-3.47;24.42
13954;BME280;7049;49.444;8.522;2023-04-05T15:15:28;77520.94;;;-3.47;25.56
13954;BME280;7049;49.444;8.522;2023-04-05T15:20:30;77508.41;;;-3.47;25.48
13954;BME280;7049;49.444;8.522;2023-04-05T15:25:33;77495.84;;;-3.47;25.53
13954;BME280;7049;49.444;8.522;2023-04-05T15:30:35;77474.94;;;-3.47;25.53
13954;BME280;7049;49.444;8.522;2023-04-05T15:35:36;77495.84;;;-3.47;24.74
13954;BME280;7049;49.444;8.522;2023-04-05T15:40:39;77493.75;;;-3.47;25.31
13954;BME280;7049;49.444;8.522;2023-04-05T15:45:41;77497.94;;;-3.47;25.18
13954;BME280;7049;49.444;8.522;2023-04-05T15:50:43;77487.47;;;-3.47;25.67
13954;BME280;7049;49.444;8.522;2023-04-05T15:55:48;77489.56;;;-3.47;25.46
13954;BME280;7049;49.444;8.522;2023-04-05T16:00:49;77504.22;;;-3.47;24.84
13954;BME280;7049;49.444;8.522;2023-04-05T16:05:50;77493.75;;;-3.47;25.64
13954;BME280;7049;49.444;8.522;2023-04-05T16:10:54;77472.84;;;-3.47;25.96
13954;BME280;7049;49.444;8.522;2023-04-05T16:15:55;77466.56;;;-3.47;25.28
13954;BME280;7049;49.444;8.522;2023-04-05T16:20:57;77470.75;;;-3.47;24.54
13954;BME280;7049;49.444;8.522;2023-04-05T16:26:00;77462.38;;;-3.47;24.93
13954;BME280;7049;49.444;8.522;2023-04-05T16:31:01;77462.38;;;-3.47;25.35
13954;BME280;7049;49.444;8.522;2023-04-05T16:36:03;77468.66;;;-3.47;25.06
13954;BME280;7049;49.444;8.522;2023-04-05T16:41:06;77483.28;;;-3.47;24.47
13954;BME280;7049;49.444;8.522;2023-04-05T16:46:07;77523.03;;;-3.47;24.91
13954;BME280;7049;49.444;8.522;2023-04-05T16:51:09;77495.84;;;-3.47;25.08
13954;BME280;7049;49.444;8.522;2023-04-05T16:56:11;77566.97;;;-3.47;25.33
13954;BME280;7049;49.444;8.522;2023-04-05T17:01:13;77648.59;;;-3.47;26.20
13954;BME280;7049;49.444;8.522;2023-04-05T17:06:14;77703.00;;;-3.47;26.50
13954;BME280;7049;49.444;8.522;2023-04-05T17:11:17;77749.03;;;-3.47;26.92
13954;BME280;7049;49.444;8.522;2023-04-05T17:16:19;77788.78;;;-3.47;26.98
13954;BME280;7049;49.444;8.522;2023-04-05T17:21:20;77830.63;;;-3.47;27.38
13954;BME280;7049;49.444;8.522;2023-04-05T17:26:23;77859.91;;;-3.47;27.95
13954;BME280;7049;49.444;8.522;2023-04-05T17:31:25;77895.50;;;-3.47;28.26
13954;BME280;7049;49.444;8.522;2023-04-05T17:36:27;77928.97;;;-3.47;27.32
13954;BME280;7049;49.444;8.522;2023-04-05T17:41:30;77964.56;;;-3.47;25.93
13954;BME280;7049;49.444;8.522;2023-04-05T17:46:31;77998.03;;;-3.47;26.52
13954;BME280;7049;49.444;8.522;2023-04-05T17:51:33;78025.22;;;-3.47;27.37
13954;BME280;7049;49.444;8.522;2023-04-05T17:56:36;78052.44;;;-3.47;28.46
13954;BME280;7049;49.444;8.522;2023-04-05T18:01:37;78081.72;;;-3.47;28.85
13954;BME280;7049;49.444;8.522;2023-04-05T18:06:38;78117.31;;;-3.47;29.25
13954;BME280;7049;49.444;8.522;2023-04-05T18:11:41;78140.31;;;-3.47;29.41
13954;BME280;7049;49.444;8.522;2023-04-05T18:16:43;78173.81;;;-3.47;30.19
13954;BME280;7049;49.444;8.522;2023-04-05T18:21:44;78205.19;;;-3.47;30.58
13954;BME280;7049;49.444;8.522;2023-04-05T18:26:47;78244.97;;;-3.47;30.37
13954;BME280;7049;49.444;8.522;2023-04-05T18:31:49;78267.97;;;-3.47;30.31
13954;BME280;7049;49.444;8.522;2023-04-05T18:36:51;78293.09;;;-3.47;31.09
13954;BME280;7049;49.444;8.522;2023-04-05T18:41:54;78322.41;;;-3.47;31.20
13954;BME280;7049;49.444;8.522;2023-04-05T18:46:59;78345.41;;;-3.47;31.68
13954;BME280;7049;49.444;8.522;2023-04-05T18:52:01;78374.72;;;-3.47;32.02
13954;BME280;7049;49.444;8.522;2023-04-05T18:57:05;78404.00;;;-3.47;32.41
13954;BME280;7049;49.444;8.522;2023-04-05T19:02:08;78424.94;;;-3.47;32.63
13954;BME280;7049;49.444;8.522;2023-04-05T19:07:09;78445.88;;;-3.47;32.88
13954;BME280;7049;49.444;8.522;2023-04-05T19:12:12;78473.06;;;-3.47;33.19
13954;BME280;7049;49.444;8.522;2023-04-05T19:17:14;78498.19;;;-3.47;33.53
13954;BME280;7049;49.444;8.522;2023-04-05T19:22:16;78523.31;;;-3.47;33.76
13954;BME280;7049;49.444;8.522;2023-04-05T19:27:18;78537.97;;;-3.47;34.04
13954;BME280;7049;49.444;8.522;2023-04-05T19:32:20;78565.16;;;-3.47;34.48
13954;BME280;7049;49.444;8.522;2023-04-05T19:37:22;78584.00;;;-3.47;34.46
13954;BME280;7049;49.444;8.522;2023-04-05T19:42:24;78600.75;;;-3.47;34.89
13954;BME280;7049;49.444;8.522;2023-04-05T19:47:26;78621.69;;;-3.47;35.56
13954;BME280;7049;49.444;8.522;2023-04-05T19:52:37;78634.22;;;-3.47;35.59
13954;BME280;7049;49.444;8.522;2023-04-05T19:57:41;78644.69;;;-3.47;35.86
13954;BME280;7049;49.444;8.522;2023-04-05T20:02:42;78663.53;;;-3.47;36.42
13954;BME280;7049;49.444;8.522;2023-04-05T20:07:43;78671.91;;;-3.47;36.32
13954;BME280;7049;49.444;8.522;2023-04-05T20:12:46;78688.66;;;-3.47;36.90
13954;BME280;7049;49.444;8.522;2023-04-05T20:17:48;78701.22;;;-3.47;37.35
13954;BME280;7049;49.444;8.522;2023-04-05T20:22:50;78715.84;;;-3.47;37.84
13954;BME280;7049;49.444;8.522;2023-04-05T20:27:53;78738.88;;;-3.47;37.71
13954;BME280;7049;49.444;8.522;2023-04-05T20:32:55;78751.44;;;-3.47;38.47
13954;BME280;7049;49.444;8.522;2023-04-05T20:37:57;78764.00;;;-3.47;38.82
13954;BME280;7049;49.444;8.522;2023-04-05T20:42:59;78776.56;;;-3.47;38.96
13954;BME280;7049;49.444;8.522;2023-04-05T20:48:02;78795.41;;;-3.47;38.96
13954;BME280;7049;49.444;8.522;2023-04-05T20:53:04;78797.50;;;-3.47;38.96
13954;BME280;7049;49.444;8.522;2023-04-05T20:58:07;78812.13;;;-3.47;39.20
13954;BME280;7049;49.444;8.522;2023-04-05T21:03:09;78818.41;;;-3.47;39.40
13954;BME280;7049;49.444;8.522;2023-04-05T21:08:11;78830.97;;;-3.47;39.54
13954;BME280;7049;49.444;8.522;2023-04-05T21:13:14;78839.34;;;-3.47;40.37
13954;BME280;7049;49.444;8.522;2023-04-05T21:18:15;78854.00;;;-3.47;40.84
13954;BME280;7049;49.444;8.522;2023-04-05T21:23:18;78856.09;;;-3.47;41.20
13954;BME280;7049;49.444;8.522;2023-04-05T21:28:21;78862.38;;;-3.47;41.53
13954;BME280;7049;49.444;8.522;2023-04-05T21:33:23;78872.84;;;-3.47;42.28
13954;BME280;7049;49.444;8.522;2023-04-05T21:38:25;78879.13;;;-3.47;42.85
13954;BME280;7049;49.444;8.522;2023-04-05T21:43:27;78883.31;;;-3.47;43.32
13954;BME280;7049;49.444;8.522;2023-04-05T21:48:31;78893.78;;;-3.47;43.72
13954;BME280;7049;49.444;8.522;2023-04-05T21:53:32;78902.16;;;-3.47;44.40
13954;BME280;7049;49.444;8.522;2023-04-05T21:58:35;78908.41;;;-3.47;45.10
13954;BME280;7049;49.444;8.522;2023-04-05T22:03:36;78914.69;;;-3.47;46.64
13954;BME280;7049;49.444;8.522;2023-04-05T22:08:38;78929.34;;;-3.47;47.73
13954;BME280;7049;49.444;8.522;2023-04-05T22:13:40;78939.81;;;-3.47;47.29
13954;BME280;7049;49.444;8.522;2023-04-05T22:18:44;78952.38;;;-3.47;47.03
13954;BME280;7049;49.444;8.522;2023-04-05T22:23:46;78967.03;;;-3.47;47.87
13954;BME280;7049;49.444;8.522;2023-04-05T22:28:48;78977.50;;;-3.47;48.30
13954;BME280;7049;49.444;8.522;2023-04-05T22:33:50;78977.50;;;-3.47;49.00
13954;BME280;7049;49.444;8.522;2023-04-05T22:38:51;78987.97;;;-3.47;49.01
13954;BME280;7049;49.444;8.522;2023-04-05T22:43:54;79002.63;;;-3.47;48.96
13954;BME280;7049;49.444;8.522;2023-04-05T22:48:55;79011.00;;;-3.47;49.96
13954;BME280;7049;49.444;8.522;2023-04-05T22:53:57;79019.34;;;-3.47;50.18
13954;BME280;7049;49.444;8.522;2023-04-05T22:59:00;79036.09;;;-3.47;50.01
13954;BME280;7049;49.444;8.522;2023-04-05T23:04:01;79036.09;;;-3.47;49.93
13954;BME280;7049;49.444;8.522;2023-04-05T23:09:02;79046.56;;;-3.47;49.87
13954;BME280;7049;49.444;8.522;2023-04-05T23:14:05;79059.13;;;-3.47;50.50
13954;BME280;7049;49.444;8.522;2023-04-05T23:19:07;79063.31;;;-3.47;51.06
13954;BME280;7049;49.444;8.522;2023-04-05T23:24:08;79071.69;;;-3.47;51.24
13954;BME280;7049;49.444;8.522;2023-04-05T23:29:12;79071.69;;;-3.47;51.71
13954;BME280;7049;49.444;8.522;2023-04-05T23:34:14;79088.44;;;-3.47;52.34
13954;BME280;7049;49.444;8.522;2023-04-05T23:39:15;79086.34;;;-3.47;52.86
13954;BME280;7049;49.444;8.522;2023-04-05T23:44:19;79103.09;;;-3.47;53.14
13954;BME280;7049;49.444;8.522;2023-04-05T23:49:21;79109.38;;;-3.47;53.98
13954;BME280;7049;49.444;8.522;2023-04-05T23:54:25;79115.66;;;-3.47;54.52
13954;BME280;7049;49.444;8.522;2023-04-05T23:59:28;79124.03;;;-3.47;54.65
